sensor_id;sensor_type;location;lat;lon;timestamp;temperature;humidity
47576;DHT22;33304;52.456;13.328;2023-10-08T00:02:10;12.00;99.90
47576;DHT22;33304;52.456;13.328;2023-10-08T00:04:40;12.00;99.90
47576;DHT22;33304;52.456;13.328;2023-10-08T00:07:10;12.10;99.90
47576;DHT22;33304;52.456;13.328;2023-10-08T00:09:37;12.10;99.90
47576;DHT22;33304;52.456;13.328;2023-10-08T00:12:06;12.10;99.90
47576;DHT22;33304;52.456;13.328;2023-10-08T00:14:36;11.90;99.90
47576;DHT22;33304;52.456;13.328;2023-10-08T00:17:11;11.80;99.90
47576;DHT22;33304;52.456;13.328;2023-10-08T00:19:39;11.90;99.90
47576;DHT22;33304;52.456;13.328;2023-10-08T00:22:08;12.00;99.90
47576;DHT22;33304;52.456;13.328;2023-10-08T00:24:36;11.90;99.90
47576;DHT22;33304;52.456;13.328;2023-10-08T00:27:08;11.90;99.90
47576;DHT22;33304;52.456;13.328;2023-10-08T00:29:36;11.80;99.90
47576;DHT22;33304;52.456;13.328;2023-10-08T00:32:06;11.80;99.90
47576;DHT22;33304;52.456;13.328;2023-10-08T00:34:39;11.80;99.90
47576;DHT22;33304;52.456;13.328;2023-10-08T00:37:10;11.80;99.90
47576;DHT22;33304;52.456;13.328;2023-10-08T00:39:40;11.80;99.90
47576;DHT22;33304;52.456;13.328;2023-10-08T00:42:09;11.80;99.90
47576;DHT22;33304;52.456;13.328;2023-10-08T00:44:38;11.80;99.90
47576;DHT22;33304;52.456;13.328;2023-10-08T00:47:15;11.80;99.90
47576;DHT22;33304;52.456;13.328;2023-10-08T00:49:46;11.80;99.90
47576;DHT22;33304;52.456;13.328;2023-10-08T00:52:29;11.80;99.90
47576;DHT22;33304;52.456;13.328;2023-10-08T00:55:05;11.80;99.90
47576;DHT22;33304;52.456;13.328;2023-10-08T00:57:42;11.80;99.90
47576;DHT22;33304;52.456;13.328;2023-10-08T01:00:14;11.80;99.90
47576;DHT22;33304;52.456;13.328;2023-10-08T01:02:50;11.80;99.90
47576;DHT22;33304;52.456;13.328;2023-10-08T01:05:26;11.80;99.90
47576;DHT22;33304;52.456;13.328;2023-10-08T01:08:08;11.80;99.90
47576;DHT22;33304;52.456;13.328;2023-10-08T01:10:38;11.80;99.90
47576;DHT22;33304;52.456;13.328;2023-10-08T01:13:10;11.70;99.90
47576;DHT22;33304;52.456;13.328;2023-10-08T01:15:41;11.80;99.90
47576;DHT22;33304;52.456;13.328;2023-10-08T01:18:10;11.80;99.90
47576;DHT22;33304;52.456;13.328;2023-10-08T01:20:41;11.80;99.90
47576;DHT22;33304;52.456;13.328;2023-10-08T01:23:20;11.80;99.90
47576;DHT22;33304;52.456;13.328;2023-10-08T01:25:52;11.80;99.90
47576;DHT22;33304;52.456;13.328;2023-10-08T01:28:27;11.70;99.90
47576;DHT22;33304;52.456;13.328;2023-10-08T01:30:56;11.80;99.90
47576;DHT22;33304;52.456;13.328;2023-10-08T01:33:26;11.70;99.90
47576;DHT22;33304;52.456;13.328;2023-10-08T01:35:55;11.70;99.90
47576;DHT22;33304;52.456;13.328;2023-10-08T01:38:29;11.80;99.90
47576;DHT22;33304;52.456;13.328;2023-10-08T01:40:58;11.80;99.90
47576;DHT22;33304;52.456;13.328;2023-10-08T01:43:31;11.70;99.90
47576;DHT22;33304;52.456;13.328;2023-10-08T01:45:58;11.70;99.90
47576;DHT22;33304;52.456;13.328;2023-10-08T01:48:25;11.60;99.90
47576;DHT22;33304;52.456;13.328;2023-10-08T01:51:02;11.50;99.90
47576;DHT22;33304;52.456;13.328;2023-10-08T01:53:36;11.50;99.90
47576;DHT22;33304;52.456;13.328;2023-10-08T01:56:04;11.60;99.90
47576;DHT22;33304;52.456;13.328;2023-10-08T01:58:31;11.50;99.90
47576;DHT22;33304;52.456;13.328;2023-10-08T02:00:59;11.50;99.90
47576;DHT22;33304;52.456;13.328;2023-10-08T02:03:27;11.50;99.90
47576;DHT22;33304;52.456;13.328;2023-10-08T02:05:54;11.60;99.90
47576;DHT22;33304;52.456;13.328;2023-10-08T02:08:25;11.70;99.90
47576;DHT22;33304;52.456;13.328;2023-10-08T02:10:55;11.60;99.90
47576;DHT22;33304;52.456;13.328;2023-10-08T02:13:22;11.50;99.90
47576;DHT22;33304;52.456;13.328;2023-10-08T02:15:50;11.50;99.90
47576;DHT22;33304;52.456;13.328;2023-10-08T02:18:18;11.60;99.90
47576;DHT22;33304;52.456;13.328;2023-10-08T02:20:45;11.50;99.90
47576;DHT22;33304;52.456;13.328;2023-10-08T02:23:14;11.40;99.90
47576;DHT22;33304;52.456;13.328;2023-10-08T02:25:41;11.50;99.90
47576;DHT22;33304;52.456;13.328;2023-10-08T02:28:10;11.40;99.90
47576;DHT22;33304;52.456;13.328;2023-10-08T02:30:39;11.40;99.90
47576;DHT22;33304;52.456;13.328;2023-10-08T02:33:07;11.40;99.90
47576;DHT22;33304;52.456;13.328;2023-10-08T02:35:41;11.50;99.90
47576;DHT22;33304;52.456;13.328;2023-10-08T02:38:10;11.60;99.90
47576;DHT22;33304;52.456;13.328;2023-10-08T02:40:38;11.50;99.90
47576;DHT22;33304;52.456;13.328;2023-10-08T02:43:12;11.50;99.90
47576;DHT22;33304;52.456;13.328;2023-10-08T02:45:40;11.50;99.90
47576;DHT22;33304;52.456;13.328;2023-10-08T02:48:08;11.60;99.90
47576;DHT22;33304;52.456;13.328;2023-10-08T02:50:38;11.50;99.90
47576;DHT22;33304;52.456;13.328;2023-10-08T02:53:07;11.50;99.90
47576;DHT22;33304;52.456;13.328;2023-10-08T02:55:37;11.50;99.90
47576;DHT22;33304;52.456;13.328;2023-10-08T02:58:08;11.60;99.90
47576;DHT22;33304;52.456;13.328;2023-10-08T03:00:42;11.60;99.90
47576;DHT22;33304;52.456;13.328;2023-10-08T03:03:09;11.60;99.90
47576;DHT22;33304;52.456;13.328;2023-10-08T03:05:46;11.60;99.90
47576;DHT22;33304;52.456;13.328;2023-10-08T03:08:14;11.50;99.90
47576;DHT22;33304;52.456;13.328;2023-10-08T03:10:46;11.50;99.90
47576;DHT22;33304;52.456;13.328;2023-10-08T03:13:15;11.50;99.90
47576;DHT22;33304;52.456;13.328;2023-10-08T03:15:44;11.50;99.90
47576;DHT22;33304;52.456;13.328;2023-10-08T03:18:24;11.50;99.90
47576;DHT22;33304;52.456;13.328;2023-10-08T03:20:51;11.60;99.90
47576;DHT22;33304;52.456;13.328;2023-10-08T03:23:19;11.60;99.90
47576;DHT22;33304;52.456;13.328;2023-10-08T03:26:00;11.60;99.90
47576;DHT22;33304;52.456;13.328;2023-10-08T03:28:37;11.50;99.90
47576;DHT22;33304;52.456;13.328;2023-10-08T03:31:08;11.60;99.90
47576;DHT22;33304;52.456;13.328;2023-10-08T03:33:42;11.60;99.90
47576;DHT22;33304;52.456;13.328;2023-10-08T03:36:15;11.60;99.90
47576;DHT22;33304;52.456;13.328;2023-10-08T03:38:47;11.70;99.90
47576;DHT22;33304;52.456;13.328;2023-10-08T03:41:18;11.60;99.90
47576;DHT22;33304;52.456;13.328;2023-10-08T03:43:46;11.70;99.90
47576;DHT22;33304;52.456;13.328;2023-10-08T03:46:29;11.70;99.90
47576;DHT22;33304;52.456;13.328;2023-10-08T03:48:56;11.70;99.90
47576;DHT22;33304;52.456;13.328;2023-10-08T03:51:24;11.60;99.90
47576;DHT22;33304;52.456;13.328;2023-10-08T03:53:53;11.60;99.90
47576;DHT22;33304;52.456;13.328;2023-10-08T03:56:36;11.70;99.90
47576;DHT22;33304;52.456;13.328;2023-10-08T03:59:03;11.70;99.90
47576;DHT22;33304;52.456;13.328;2023-10-08T04:01:40;11.60;99.90
47576;DHT22;33304;52.456;13.328;2023-10-08T04:04:08;11.60;99.90
47576;DHT22;33304;52.456;13.328;2023-10-08T04:06:40;11.60;99.90
47576;DHT22;33304;52.456;13.328;2023-10-08T04:09:14;11.60;99.90
47576;DHT22;33304;52.456;13.328;2023-10-08T04:11:51;11.60;99.90
47576;DHT22;33304;52.456;13.328;2023-10-08T04:14:29;11.60;99.90
47576;DHT22;33304;52.456;13.328;2023-10-08T04:16:57;11.60;99.90
47576;DHT22;33304;52.456;13.328;2023-10-08T04:19:25;11.60;99.90
47576;DHT22;33304;52.456;13.328;2023-10-08T04:21:53;11.60;99.90
47576;DHT22;33304;52.456;13.328;2023-10-08T04:24:23;11.70;99.90
47576;DHT22;33304;52.456;13.328;2023-10-08T04:27:00;11.60;99.90
47576;DHT22;33304;52.456;13.328;2023-10-08T04:29:29;11.60;99.90
47576;DHT22;33304;52.456;13.328;2023-10-08T04:32:00;11.60;99.90
47576;DHT22;33304;52.456;13.328;2023-10-08T04:34:35;11.70;99.90
47576;DHT22;33304;52.456;13.328;2023-10-08T04:37:03;11.60;99.90
47576;DHT22;33304;52.456;13.328;2023-10-08T04:39:39;11.60;99.90
47576;DHT22;33304;52.456;13.328;2023-10-08T04:42:12;11.60;99.90
47576;DHT22;33304;52.456;13.328;2023-10-08T04:44:51;11.60;99.90
47576;DHT22;33304;52.456;13.328;2023-10-08T04:47:22;11.60;99.90
47576;DHT22;33304;52.456;13.328;2023-10-08T04:49:58;11.60;99.90
47576;DHT22;33304;52.456;13.328;2023-10-08T04:52:25;11.60;99.90
47576;DHT22;33304;52.456;13.328;2023-10-08T04:54:53;11.60;99.90
47576;DHT22;33304;52.456;13.328;2023-10-08T04:57:22;11.50;99.90
47576;DHT22;33304;52.456;13.328;2023-10-08T04:59:52;11.50;99.90
47576;DHT22;33304;52.456;13.328;2023-10-08T05:02:24;11.40;99.90
47576;DHT22;33304;52.456;13.328;2023-10-08T05:05:00;11.30;99.90
47576;DHT22;33304;52.456;13.328;2023-10-08T05:07:48;11.30;99.90
47576;DHT22;33304;52.456;13.328;2023-10-08T05:10:27;11.30;99.90
47576;DHT22;33304;52.456;13.328;2023-10-08T05:13:27;11.20;99.90
47576;DHT22;33304;52.456;13.328;2023-10-08T05:15:59;11.20;99.90
47576;DHT22;33304;52.456;13.328;2023-10-08T05:18:39;11.10;99.90
47576;DHT22;33304;52.456;13.328;2023-10-08T05:21:34;11.10;99.90
47576;DHT22;33304;52.456;13.328;2023-10-08T05:24:18;11.10;99.90
47576;DHT22;33304;52.456;13.328;2023-10-08T05:26:53;11.00;99.90
47576;DHT22;33304;52.456;13.328;2023-10-08T05:29:41;11.00;99.90
47576;DHT22;33304;52.456;13.328;2023-10-08T05:32:40;11.00;99.90
47576;DHT22;33304;52.456;13.328;2023-10-08T05:35:34;11.00;99.90
47576;DHT22;33304;52.456;13.328;2023-10-08T05:38:24;11.00;99.90
47576;DHT22;33304;52.456;13.328;2023-10-08T05:41:14;10.90;99.90
47576;DHT22;33304;52.456;13.328;2023-10-08T05:43:54;10.90;99.90
47576;DHT22;33304;52.456;13.328;2023-10-08T05:46:38;10.90;99.90
47576;DHT22;33304;52.456;13.328;2023-10-08T05:49:32;10.90;99.90
47576;DHT22;33304;52.456;13.328;2023-10-08T05:52:09;11.00;99.90
47576;DHT22;33304;52.456;13.328;2023-10-08T05:54:52;10.90;99.90
47576;DHT22;33304;52.456;13.328;2023-10-08T05:57:41;11.00;99.90
47576;DHT22;33304;52.456;13.328;2023-10-08T06:00:18;11.00;99.90
47576;DHT22;33304;52.456;13.328;2023-10-08T06:03:08;11.10;99.90
47576;DHT22;33304;52.456;13.328;2023-10-08T06:06:01;11.10;99.90
47576;DHT22;33304;52.456;13.328;2023-10-08T06:09:04;11.10;99.90
47576;DHT22;33304;52.456;13.328;2023-10-08T06:11:48;11.20;99.90
47576;DHT22;33304;52.456;13.328;2023-10-08T06:14:37;11.30;99.90
47576;DHT22;33304;52.456;13.328;2023-10-08T06:17:19;11.30;99.90
47576;DHT22;33304;52.456;13.328;2023-10-08T06:20:21;11.40;99.90
47576;DHT22;33304;52.456;13.328;2023-10-08T06:22:52;11.40;99.90
47576;DHT22;33304;52.456;13.328;2023-10-08T06:25:27;11.40;99.90
47576;DHT22;33304;52.456;13.328;2023-10-08T06:27:56;11.40;99.90
47576;DHT22;33304;52.456;13.328;2023-10-08T06:30:24;11.40;99.90
47576;DHT22;33304;52.456;13.328;2023-10-08T06:32:55;11.50;99.90
47576;DHT22;33304;52.456;13.328;2023-10-08T06:35:23;11.50;99.90
47576;DHT22;33304;52.456;13.328;2023-10-08T06:37:54;11.50;99.90
47576;DHT22;33304;52.456;13.328;2023-10-08T06:40:27;11.50;99.90
47576;DHT22;33304;52.456;13.328;2023-10-08T06:43:10;11.50;99.90
47576;DHT22;33304;52.456;13.328;2023-10-08T06:45:48;11.40;99.90
47576;DHT22;33304;52.456;13.328;2023-10-08T06:48:19;11.50;99.90
47576;DHT22;33304;52.456;13.328;2023-10-08T06:50:52;11.60;99.90
47576;DHT22;33304;52.456;13.328;2023-10-08T06:53:23;11.70;99.90
47576;DHT22;33304;52.456;13.328;2023-10-08T06:55:51;11.70;99.90
47576;DHT22;33304;52.456;13.328;2023-10-08T06:58:22;11.70;99.90
47576;DHT22;33304;52.456;13.328;2023-10-08T07:00:50;11.80;99.90
47576;DHT22;33304;52.456;13.328;2023-10-08T07:03:18;11.90;93.50
47576;DHT22;33304;52.456;13.328;2023-10-08T07:05:48;11.90;91.60
47576;DHT22;33304;52.456;13.328;2023-10-08T07:08:24;11.90;91.50
47576;DHT22;33304;52.456;13.328;2023-10-08T07:10:54;12.00;83.30
47576;DHT22;33304;52.456;13.328;2023-10-08T07:13:23;12.00;78.00
47576;DHT22;33304;52.456;13.328;2023-10-08T07:15:51;12.10;70.20
47576;DHT22;33304;52.456;13.328;2023-10-08T07:18:18;12.10;69.20
47576;DHT22;33304;52.456;13.328;2023-10-08T07:20:51;12.10;68.20
47576;DHT22;33304;52.456;13.328;2023-10-08T07:23:20;12.10;65.00
47576;DHT22;33304;52.456;13.328;2023-10-08T07:25:57;12.20;59.00
47576;DHT22;33304;52.456;13.328;2023-10-08T07:28:36;12.20;58.80
47576;DHT22;33304;52.456;13.328;2023-10-08T07:31:05;12.10;54.80
47576;DHT22;33304;52.456;13.328;2023-10-08T07:33:35;12.10;49.60
47576;DHT22;33304;52.456;13.328;2023-10-08T07:36:03;12.10;46.80
47576;DHT22;33304;52.456;13.328;2023-10-08T07:38:38;12.10;45.10
47576;DHT22;33304;52.456;13.328;2023-10-08T07:41:09;12.10;41.50
47576;DHT22;33304;52.456;13.328;2023-10-08T07:43:38;12.20;42.40
47576;DHT22;33304;52.456;13.328;2023-10-08T07:46:05;12.20;36.90
47576;DHT22;33304;52.456;13.328;2023-10-08T07:48:32;12.20;38.90
47576;DHT22;33304;52.456;13.328;2023-10-08T07:50:59;12.20;40.10
47576;DHT22;33304;52.456;13.328;2023-10-08T07:53:28;12.20;38.80
47576;DHT22;33304;52.456;13.328;2023-10-08T07:56:04;12.30;35.90
47576;DHT22;33304;52.456;13.328;2023-10-08T07:58:35;12.20;40.50
47576;DHT22;33304;52.456;13.328;2023-10-08T08:01:03;12.20;38.70
47576;DHT22;33304;52.456;13.328;2023-10-08T08:03:32;12.30;31.70
47576;DHT22;33304;52.456;13.328;2023-10-08T08:06:00;12.30;33.70
47576;DHT22;33304;52.456;13.328;2023-10-08T08:08:27;12.40;31.80
47576;DHT22;33304;52.456;13.328;2023-10-08T08:10:54;12.50;30.00
47576;DHT22;33304;52.456;13.328;2023-10-08T08:13:24;12.50;33.50
47576;DHT22;33304;52.456;13.328;2023-10-08T08:15:55;12.50;30.50
47576;DHT22;33304;52.456;13.328;2023-10-08T08:18:25;12.50;30.10
47576;DHT22;33304;52.456;13.328;2023-10-08T08:21:00;12.50;26.70
47576;DHT22;33304;52.456;13.328;2023-10-08T08:23:29;12.50;29.00
47576;DHT22;33304;52.456;13.328;2023-10-08T08:25:57;12.50;28.10
47576;DHT22;33304;52.456;13.328;2023-10-08T08:28:38;12.50;29.40
47576;DHT22;33304;52.456;13.328;2023-10-08T08:31:07;12.60;27.20
47576;DHT22;33304;52.456;13.328;2023-10-08T08:33:40;12.70;23.90
47576;DHT22;33304;52.456;13.328;2023-10-08T08:36:23;12.70;23.90
47576;DHT22;33304;52.456;13.328;2023-10-08T08:38:51;12.80;24.00
47576;DHT22;33304;52.456;13.328;2023-10-08T08:41:19;12.80;24.50
47576;DHT22;33304;52.456;13.328;2023-10-08T08:43:48;13.00;19.70
47576;DHT22;33304;52.456;13.328;2023-10-08T08:46:17;13.00;19.30
47576;DHT22;33304;52.456;13.328;2023-10-08T08:48:44;13.00;22.60
47576;DHT22;33304;52.456;13.328;2023-10-08T08:51:11;13.00;23.30
47576;DHT22;33304;52.456;13.328;2023-10-08T08:53:39;13.10;25.00
47576;DHT22;33304;52.456;13.328;2023-10-08T08:56:08;13.20;18.10
47576;DHT22;33304;52.456;13.328;2023-10-08T08:58:36;13.10;21.80
47576;DHT22;33304;52.456;13.328;2023-10-08T09:01:06;13.20;19.40
47576;DHT22;33304;52.456;13.328;2023-10-08T09:03:35;13.40;12.60
47576;DHT22;33304;52.456;13.328;2023-10-08T09:06:03;13.30;14.80
47576;DHT22;33304;52.456;13.328;2023-10-08T09:08:35;13.30;14.60
47576;DHT22;33304;52.456;13.328;2023-10-08T09:11:03;13.40;14.70
47576;DHT22;33304;52.456;13.328;2023-10-08T09:13:31;13.50;13.90
47576;DHT22;33304;52.456;13.328;2023-10-08T09:16:06;13.40;12.30
47576;DHT22;33304;52.456;13.328;2023-10-08T09:18:35;13.50;13.60
47576;DHT22;33304;52.456;13.328;2023-10-08T09:21:14;13.50;11.70
47576;DHT22;33304;52.456;13.328;2023-10-08T09:23:50;13.60;11.70
47576;DHT22;33304;52.456;13.328;2023-10-08T09:26:18;13.70;11.40
47576;DHT22;33304;52.456;13.328;2023-10-08T09:28:46;13.80;10.60
47576;DHT22;33304;52.456;13.328;2023-10-08T09:31:16;13.80;7.30
47576;DHT22;33304;52.456;13.328;2023-10-08T09:33:56;13.70;4.90
47576;DHT22;33304;52.456;13.328;2023-10-08T09:36:29;13.70;7.40
47576;DHT22;33304;52.456;13.328;2023-10-08T09:39:00;13.90;11.10
47576;DHT22;33304;52.456;13.328;2023-10-08T09:41:33;14.00;11.90
47576;DHT22;33304;52.456;13.328;2023-10-08T09:44:07;14.00;10.40
47576;DHT22;33304;52.456;13.328;2023-10-08T09:46:37;14.10;6.10
47576;DHT22;33304;52.456;13.328;2023-10-08T09:49:08;14.10;3.80
47576;DHT22;33304;52.456;13.328;2023-10-08T09:51:40;14.10;5.20
47576;DHT22;33304;52.456;13.328;2023-10-08T09:54:10;14.00;2.00
47576;DHT22;33304;52.456;13.328;2023-10-08T09:56:40;14.20;3.80
47576;DHT22;33304;52.456;13.328;2023-10-08T09:59:09;14.30;5.90
47576;DHT22;33304;52.456;13.328;2023-10-08T10:01:37;14.40;6.00
47576;DHT22;33304;52.456;13.328;2023-10-08T10:04:09;14.50;5.50
47576;DHT22;33304;52.456;13.328;2023-10-08T10:06:37;14.50;3.10
47576;DHT22;33304;52.456;13.328;2023-10-08T10:09:06;14.60;3.80
47576;DHT22;33304;52.456;13.328;2023-10-08T10:11:47;14.70;3.20
47576;DHT22;33304;52.456;13.328;2023-10-08T10:14:14;14.80;2.60
47576;DHT22;33304;52.456;13.328;2023-10-08T10:16:43;14.80;1.00
47576;DHT22;33304;52.456;13.328;2023-10-08T10:19:19;14.80;1.00
47576;DHT22;33304;52.456;13.328;2023-10-08T10:21:48;14.80;1.00
47576;DHT22;33304;52.456;13.328;2023-10-08T10:24:22;14.80;1.00
47576;DHT22;33304;52.456;13.328;2023-10-08T10:26:50;14.90;1.00
47576;DHT22;33304;52.456;13.328;2023-10-08T10:29:20;15.00;1.00
47576;DHT22;33304;52.456;13.328;2023-10-08T10:31:49;15.00;1.00
47576;DHT22;33304;52.456;13.328;2023-10-08T10:34:21;15.20;1.00
47576;DHT22;33304;52.456;13.328;2023-10-08T10:36:51;15.30;1.00
47576;DHT22;33304;52.456;13.328;2023-10-08T10:39:23;15.40;1.00
47576;DHT22;33304;52.456;13.328;2023-10-08T10:41:56;15.40;1.00
47576;DHT22;33304;52.456;13.328;2023-10-08T10:44:27;15.50;1.00
47576;DHT22;33304;52.456;13.328;2023-10-08T10:46:56;15.30;1.00
47576;DHT22;33304;52.456;13.328;2023-10-08T10:49:38;15.30;1.00
47576;DHT22;33304;52.456;13.328;2023-10-08T10:52:15;15.30;1.00
47576;DHT22;33304;52.456;13.328;2023-10-08T10:54:52;15.30;1.00
47576;DHT22;33304;52.456;13.328;2023-10-08T10:57:25;15.30;1.00
47576;DHT22;33304;52.456;13.328;2023-10-08T11:00:03;15.40;1.00
47576;DHT22;33304;52.456;13.328;2023-10-08T11:02:53;15.50;1.00
47576;DHT22;33304;52.456;13.328;2023-10-08T11:05:23;15.60;1.00
47576;DHT22;33304;52.456;13.328;2023-10-08T11:07:55;15.80;1.00
47576;DHT22;33304;52.456;13.328;2023-10-08T11:10:26;15.90;1.00
47576;DHT22;33304;52.456;13.328;2023-10-08T11:12:54;16.00;1.00
47576;DHT22;33304;52.456;13.328;2023-10-08T11:15:25;16.10;1.00
47576;DHT22;33304;52.456;13.328;2023-10-08T11:18:07;16.20;1.00
47576;DHT22;33304;52.456;13.328;2023-10-08T11:20:36;16.10;1.00
47576;DHT22;33304;52.456;13.328;2023-10-08T11:23:06;15.90;1.00
47576;DHT22;33304;52.456;13.328;2023-10-08T11:25:54;16.10;1.00
47576;DHT22;33304;52.456;13.328;2023-10-08T11:28:21;16.40;1.00
47576;DHT22;33304;52.456;13.328;2023-10-08T11:30:53;16.50;1.00
47576;DHT22;33304;52.456;13.328;2023-10-08T11:33:23;16.50;1.00
47576;DHT22;33304;52.456;13.328;2023-10-08T11:36:01;16.60;1.00
47576;DHT22;33304;52.456;13.328;2023-10-08T11:38:37;16.70;1.00
47576;DHT22;33304;52.456;13.328;2023-10-08T11:41:11;16.80;1.00
47576;DHT22;33304;52.456;13.328;2023-10-08T11:43:48;16.90;1.00
47576;DHT22;33304;52.456;13.328;2023-10-08T11:46:22;16.80;1.00
47576;DHT22;33304;52.456;13.328;2023-10-08T11:48:51;17.00;1.00
47576;DHT22;33304;52.456;13.328;2023-10-08T11:51:20;17.10;1.00
47576;DHT22;33304;52.456;13.328;2023-10-08T11:53:50;17.00;1.00
47576;DHT22;33304;52.456;13.328;2023-10-08T11:56:19;17.10;1.00
47576;DHT22;33304;52.456;13.328;2023-10-08T11:58:49;17.30;1.00
47576;DHT22;33304;52.456;13.328;2023-10-08T12:01:18;17.30;1.00
47576;DHT22;33304;52.456;13.328;2023-10-08T12:03:46;17.40;1.00
47576;DHT22;33304;52.456;13.328;2023-10-08T12:06:16;17.60;1.00
47576;DHT22;33304;52.456;13.328;2023-10-08T12:08:47;17.70;1.00
47576;DHT22;33304;52.456;13.328;2023-10-08T12:11:19;17.90;1.00
47576;DHT22;33304;52.456;13.328;2023-10-08T12:13:49;17.90;1.00
47576;DHT22;33304;52.456;13.328;2023-10-08T12:16:16;18.00;1.00
47576;DHT22;33304;52.456;13.328;2023-10-08T12:18:49;18.00;1.00
47576;DHT22;33304;52.456;13.328;2023-10-08T12:21:19;18.00;1.00
47576;DHT22;33304;52.456;13.328;2023-10-08T12:23:49;18.10;1.00
47576;DHT22;33304;52.456;13.328;2023-10-08T12:26:17;17.80;1.00
47576;DHT22;33304;52.456;13.328;2023-10-08T12:28:45;17.60;1.00
47576;DHT22;33304;52.456;13.328;2023-10-08T12:31:14;17.90;1.00
47576;DHT22;33304;52.456;13.328;2023-10-08T12:33:42;18.00;1.00
47576;DHT22;33304;52.456;13.328;2023-10-08T12:36:11;18.30;1.00
47576;DHT22;33304;52.456;13.328;2023-10-08T12:38:40;18.60;1.00
47576;DHT22;33304;52.456;13.328;2023-10-08T12:41:09;18.50;1.00
47576;DHT22;33304;52.456;13.328;2023-10-08T12:43:40;18.10;1.00
47576;DHT22;33304;52.456;13.328;2023-10-08T12:46:11;18.50;1.00
47576;DHT22;33304;52.456;13.328;2023-10-08T12:48:44;18.90;1.00
47576;DHT22;33304;52.456;13.328;2023-10-08T12:51:14;18.50;1.00
47576;DHT22;33304;52.456;13.328;2023-10-08T12:53:42;18.50;1.00
47576;DHT22;33304;52.456;13.328;2023-10-08T12:56:17;18.90;1.00
47576;DHT22;33304;52.456;13.328;2023-10-08T12:58:47;20.00;1.00
47576;DHT22;33304;52.456;13.328;2023-10-08T13:01:19;20.40;1.00
47576;DHT22;33304;52.456;13.328;2023-10-08T13:03:46;21.50;1.00
47576;DHT22;33304;52.456;13.328;2023-10-08T13:06:20;21.90;1.00
47576;DHT22;33304;52.456;13.328;2023-10-08T13:08:49;22.80;1.00
47576;DHT22;33304;52.456;13.328;2023-10-08T13:11:20;22.90;1.00
47576;DHT22;33304;52.456;13.328;2023-10-08T13:13:49;23.30;1.00
47576;DHT22;33304;52.456;13.328;2023-10-08T13:16:17;22.90;1.00
47576;DHT22;33304;52.456;13.328;2023-10-08T13:18:44;22.90;1.00
47576;DHT22;33304;52.456;13.328;2023-10-08T13:21:11;22.70;1.00
47576;DHT22;33304;52.456;13.328;2023-10-08T13:23:39;22.90;1.00
47576;DHT22;33304;52.456;13.328;2023-10-08T13:26:07;23.40;1.00
47576;DHT22;33304;52.456;13.328;2023-10-08T13:28:36;22.40;1.00
47576;DHT22;33304;52.456;13.328;2023-10-08T13:31:03;23.10;1.00
47576;DHT22;33304;52.456;13.328;2023-10-08T13:33:36;23.10;1.00
47576;DHT22;33304;52.456;13.328;2023-10-08T13:36:06;22.40;1.00
47576;DHT22;33304;52.456;13.328;2023-10-08T13:38:35;21.80;1.00
47576;DHT22;33304;52.456;13.328;2023-10-08T13:41:03;22.50;1.00
47576;DHT22;33304;52.456;13.328;2023-10-08T13:43:32;22.20;1.00
47576;DHT22;33304;52.456;13.328;2023-10-08T13:46:04;22.30;1.00
47576;DHT22;33304;52.456;13.328;2023-10-08T13:48:33;22.80;1.00
47576;DHT22;33304;52.456;13.328;2023-10-08T13:51:02;23.60;1.00
47576;DHT22;33304;52.456;13.328;2023-10-08T13:53:33;24.00;1.00
47576;DHT22;33304;52.456;13.328;2023-10-08T13:56:03;24.50;1.00
47576;DHT22;33304;52.456;13.328;2023-10-08T13:58:30;24.60;1.00
47576;DHT22;33304;52.456;13.328;2023-10-08T14:01:00;25.10;1.00
47576;DHT22;33304;52.456;13.328;2023-10-08T14:03:31;24.70;1.00
47576;DHT22;33304;52.456;13.328;2023-10-08T14:05:58;25.00;1.00
47576;DHT22;33304;52.456;13.328;2023-10-08T14:08:29;24.20;1.00
47576;DHT22;33304;52.456;13.328;2023-10-08T14:10:57;24.40;1.00
47576;DHT22;33304;52.456;13.328;2023-10-08T14:13:29;25.20;1.00
47576;DHT22;33304;52.456;13.328;2023-10-08T14:15:58;25.10;1.00
47576;DHT22;33304;52.456;13.328;2023-10-08T14:18:26;25.70;1.00
47576;DHT22;33304;52.456;13.328;2023-10-08T14:20:56;26.00;1.00
47576;DHT22;33304;52.456;13.328;2023-10-08T14:23:23;26.00;1.00
47576;DHT22;33304;52.456;13.328;2023-10-08T14:25:52;26.30;1.00
47576;DHT22;33304;52.456;13.328;2023-10-08T14:28:29;26.00;1.00
47576;DHT22;33304;52.456;13.328;2023-10-08T14:31:07;26.20;1.00
47576;DHT22;33304;52.456;13.328;2023-10-08T14:33:35;26.30;1.00
47576;DHT22;33304;52.456;13.328;2023-10-08T14:36:09;26.20;1.00
47576;DHT22;33304;52.456;13.328;2023-10-08T14:38:54;26.20;1.00
47576;DHT22;33304;52.456;13.328;2023-10-08T14:41:39;25.30;1.00
47576;DHT22;33304;52.456;13.328;2023-10-08T14:44:24;24.90;1.00
47576;DHT22;33304;52.456;13.328;2023-10-08T14:46:51;23.90;1.00
47576;DHT22;33304;52.456;13.328;2023-10-08T14:49:20;24.10;1.00
47576;DHT22;33304;52.456;13.328;2023-10-08T14:51:50;24.40;1.00
47576;DHT22;33304;52.456;13.328;2023-10-08T14:54:19;24.00;1.00
47576;DHT22;33304;52.456;13.328;2023-10-08T14:56:47;24.50;1.00
47576;DHT22;33304;52.456;13.328;2023-10-08T14:59:15;24.90;1.00
47576;DHT22;33304;52.456;13.328;2023-10-08T15:01:43;24.30;1.00
47576;DHT22;33304;52.456;13.328;2023-10-08T15:04:13;23.20;1.00
47576;DHT22;33304;52.456;13.328;2023-10-08T15:06:40;22.70;1.00
47576;DHT22;33304;52.456;13.328;2023-10-08T15:09:10;23.00;1.00
47576;DHT22;33304;52.456;13.328;2023-10-08T15:11:45;23.20;1.00
47576;DHT22;33304;52.456;13.328;2023-10-08T15:14:12;23.50;1.00
47576;DHT22;33304;52.456;13.328;2023-10-08T15:16:41;23.40;1.00
47576;DHT22;33304;52.456;13.328;2023-10-08T15:19:09;23.30;1.00
47576;DHT22;33304;52.456;13.328;2023-10-08T15:21:38;22.50;1.00
47576;DHT22;33304;52.456;13.328;2023-10-08T15:24:05;22.00;1.00
47576;DHT22;33304;52.456;13.328;2023-10-08T15:26:38;21.50;1.00
47576;DHT22;33304;52.456;13.328;2023-10-08T15:29:06;20.90;1.00
47576;DHT22;33304;52.456;13.328;2023-10-08T15:31:33;20.40;1.00
47576;DHT22;33304;52.456;13.328;2023-10-08T15:34:00;19.80;1.00
47576;DHT22;33304;52.456;13.328;2023-10-08T15:36:30;19.40;1.00
47576;DHT22;33304;52.456;13.328;2023-10-08T15:38:57;19.10;1.00
47576;DHT22;33304;52.456;13.328;2023-10-08T15:41:25;18.90;1.00
47576;DHT22;33304;52.456;13.328;2023-10-08T15:43:54;18.70;1.00
47576;DHT22;33304;52.456;13.328;2023-10-08T15:46:24;18.30;1.00
47576;DHT22;33304;52.456;13.328;2023-10-08T15:48:52;18.10;1.00
47576;DHT22;33304;52.456;13.328;2023-10-08T15:51:19;17.90;1.00
47576;DHT22;33304;52.456;13.328;2023-10-08T15:53:46;17.60;1.00